aviador You're here:

YCCY Decoded Metar

in
Report Time2017-10-22 17:00:00
UTC Time2017-10-22 17:26:58
Flight Rules unknown UNKNOWN
Wind190° at 07 kt
W.Decomp.*RWY 24: 4.5 kt HW 5.4 kt LCW
RWY 12: 2.4 kt HW 6.6 kt RCW
W.Rank190° ranks 1
Current wind is below 190° avg. (8.6)
VisibilityN/A
Phenomena:N/A
Clouds:N/A
Expected CloudBase > 9,600 ft AGL from Temp-Dew spread
CeilingNone
Temp20°C
Dew Point-4°C (20% RH)
AAT15.0°C
QNH1013 hPa
Raw Report
METAR YCCY 221700Z AUTO 19007KT //// // ////// 20/M04 Q1013=

Extra information for YCCY:More info

Social comments